createdAt,value
2023-02-06T00:02:23.575Z,69.03
2023-02-06T00:04:57.551Z,55.33
2023-02-06T00:07:24.879Z,78.37
2023-02-06T00:09:58.545Z,78.80
2023-02-06T00:12:25.953Z,74.80
2023-02-06T00:14:59.550Z,85.87
2023-02-06T00:17:33.574Z,97.70
2023-02-06T00:20:00.907Z,84.90
2023-02-06T00:22:34.558Z,79.03
2023-02-06T00:25:08.558Z,94.50
2023-02-06T00:27:43.627Z,48.43
2023-02-06T00:30:17.806Z,60.67
2023-02-06T00:32:58.630Z,67.87
2023-02-06T00:35:26.053Z,60.47
2023-02-06T00:38:00.565Z,70.17
2023-02-06T00:40:28.048Z,67.43
2023-02-06T00:43:01.557Z,66.73
2023-02-06T00:45:28.916Z,65.77
2023-02-06T00:48:02.581Z,70.30
2023-02-06T00:50:30.165Z,49.97
2023-02-06T00:53:03.585Z,54.87
2023-02-06T00:55:37.638Z,51.27
2023-02-06T00:58:11.586Z,61.43
2023-02-06T01:00:45.603Z,35.30
2023-02-06T01:03:13.050Z,39.43
2023-02-06T01:05:46.664Z,49.47
2023-02-06T01:08:14.436Z,44.83
2023-02-06T01:10:51.619Z,24.23
2023-02-06T01:13:26.578Z,21.57
2023-02-06T01:16:01.596Z,31.33
2023-02-06T01:18:35.570Z,36.10
2023-02-06T01:21:13.626Z,42.07
2023-02-06T01:23:47.567Z,34.83
2023-02-06T01:26:23.568Z,51.23
2023-02-06T01:28:51.473Z,43.13
2023-02-06T01:31:26.626Z,34.17
2023-02-06T01:33:56.464Z,36.73
2023-02-06T01:36:30.625Z,39.83
2023-02-06T01:38:58.077Z,41.90
2023-02-06T01:41:32.539Z,40.77
2023-02-06T01:44:30.587Z,35.17
2023-02-06T01:47:04.581Z,36.63
2023-02-06T01:49:54.583Z,32.40
2023-02-06T01:52:24.901Z,31.50
2023-02-06T01:55:05.596Z,39.93
2023-02-06T01:57:34.347Z,33.83
2023-02-06T02:00:12.568Z,48.53
2023-02-06T02:02:50.546Z,37.37
2023-02-06T02:05:32.568Z,41.37
2023-02-06T02:08:29.556Z,44.27
2023-02-06T02:10:58.815Z,52.77
2023-02-06T02:13:32.583Z,39.67
2023-02-06T02:16:11.637Z,54.53
2023-02-06T02:19:03.611Z,41.00
2023-02-06T02:22:15.620Z,29.90
2023-02-06T02:25:40.643Z,30.47
2023-02-06T02:28:54.007Z,40.20
2023-02-06T02:32:03.574Z,36.73
2023-02-06T02:34:54.071Z,38.53
2023-02-06T02:37:38.672Z,44.77
2023-02-06T02:40:19.520Z,56.50
2023-02-06T02:43:04.694Z,53.80
2023-02-06T02:45:57.677Z,43.60
2023-02-06T02:48:41.651Z,45.00
2023-02-06T02:51:16.666Z,36.03
2023-02-06T02:53:50.679Z,60.47
2023-02-06T02:56:27.214Z,44.50
2023-02-06T02:59:08.691Z,42.67
2023-02-06T03:01:49.741Z,48.77
2023-02-06T03:04:34.677Z,42.60
2023-02-06T03:07:20.322Z,51.50
2023-02-06T03:10:19.667Z,40.83
2023-02-06T03:13:16.331Z,53.53
2023-02-06T03:16:23.748Z,40.27
2023-02-06T03:19:18.707Z,44.23
2023-02-06T03:21:48.349Z,39.70
2023-02-06T03:24:27.700Z,35.17
2023-02-06T03:27:00.239Z,49.70
2023-02-06T03:29:38.651Z,32.50
2023-02-06T03:32:36.820Z,40.77
2023-02-06T03:35:17.656Z,27.57
2023-02-06T03:37:53.678Z,32.07
2023-02-06T03:40:21.420Z,48.63
2023-02-06T03:43:03.681Z,31.83
2023-02-06T03:46:00.434Z,35.23
2023-02-06T03:48:41.731Z,25.27
2023-02-06T03:51:22.248Z,26.87
2023-02-06T03:53:57.722Z,27.47
2023-02-06T03:56:43.670Z,25.30
2023-02-06T03:59:19.708Z,26.87
2023-02-06T04:01:57.740Z,22.47
2023-02-06T04:04:46.883Z,22.43
2023-02-06T04:07:34.663Z,26.70
2023-02-06T04:10:11.737Z,26.90
2023-02-06T04:12:45.758Z,27.57
2023-02-06T04:15:13.123Z,23.93
2023-02-06T04:17:59.273Z,28.23
2023-02-06T04:20:28.580Z,19.10
2023-02-06T04:23:02.731Z,23.87
2023-02-06T04:25:30.112Z,25.33
2023-02-06T04:28:05.834Z,20.97
2023-02-06T04:30:39.832Z,33.67
2023-02-06T04:33:13.792Z,30.40
2023-02-06T04:35:47.769Z,22.97
2023-02-06T04:38:15.231Z,25.27
2023-02-06T04:40:49.793Z,24.43
2023-02-06T04:43:19.112Z,21.67
2023-02-06T04:45:53.797Z,35.80
2023-02-06T04:48:22.410Z,24.30
2023-02-06T04:50:59.793Z,24.57
2023-02-06T04:53:33.784Z,25.97
2023-02-06T04:56:11.994Z,27.20
2023-02-06T04:58:47.788Z,34.20
2023-02-06T05:01:16.987Z,37.03
2023-02-06T05:03:57.774Z,29.63
2023-02-06T05:06:25.346Z,43.93
2023-02-06T05:08:58.730Z,36.87
2023-02-06T05:11:26.616Z,48.57
2023-02-06T05:14:00.765Z,38.10
2023-02-06T05:16:34.778Z,52.23
2023-02-06T05:19:02.161Z,58.33
2023-02-06T05:21:35.755Z,61.83
2023-02-06T05:24:04.221Z,54.87
2023-02-06T05:26:37.783Z,43.73
2023-02-06T05:29:05.601Z,62.93
2023-02-06T05:31:39.869Z,54.27
2023-02-06T05:34:22.911Z,65.47
2023-02-06T05:36:50.325Z,51.13
2023-02-06T05:39:24.837Z,54.43
2023-02-06T05:41:58.836Z,42.53
2023-02-06T05:44:33.767Z,53.37
2023-02-06T05:47:01.134Z,66.73
2023-02-06T05:49:34.806Z,58.67
2023-02-06T05:52:10.784Z,64.97
2023-02-06T05:55:00.766Z,65.67
2023-02-06T05:57:34.990Z,80.10
2023-02-06T06:00:08.751Z,87.07
2023-02-06T06:02:42.802Z,103.77
2023-02-06T06:05:16.839Z,104.53
2023-02-06T06:07:51.754Z,108.43
2023-02-06T06:10:19.183Z,123.43
2023-02-06T06:12:54.795Z,89.27
2023-02-06T06:15:24.411Z,101.23
2023-02-06T06:17:51.765Z,89.23
2023-02-06T06:20:25.787Z,70.43
2023-02-06T06:22:59.797Z,88.50
2023-02-06T06:25:34.064Z,74.83
2023-02-06T06:28:07.807Z,81.80
2023-02-06T06:30:41.831Z,96.00
2023-02-06T06:33:09.511Z,53.20
2023-02-06T06:35:46.823Z,42.60
2023-02-06T06:38:20.826Z,54.83
2023-02-06T06:40:50.128Z,63.47
2023-02-06T06:43:23.902Z,40.30
2023-02-06T06:45:51.938Z,48.87
2023-02-06T06:48:26.970Z,55.03
2023-02-06T06:51:01.858Z,39.97
2023-02-06T06:53:29.444Z,40.60
2023-02-06T06:56:08.933Z,30.43
2023-02-06T06:58:42.853Z,33.37
2023-02-06T07:01:10.594Z,31.27
2023-02-06T07:03:53.935Z,30.60
2023-02-06T07:06:28.007Z,28.73
2023-02-06T07:09:02.178Z,28.20
2023-02-06T07:11:30.169Z,32.80
2023-02-06T07:14:05.939Z,21.10
2023-02-06T07:16:33.800Z,24.40
2023-02-06T07:19:09.295Z,22.97
2023-02-06T07:21:47.383Z,24.13
2023-02-06T07:24:15.100Z,24.73
2023-02-06T07:26:52.285Z,27.03
2023-02-06T07:29:20.415Z,26.70
2023-02-06T07:31:55.022Z,24.37
2023-02-06T07:34:28.870Z,23.73
2023-02-06T07:36:57.374Z,22.53
2023-02-06T07:39:32.977Z,21.67
2023-02-06T07:42:00.947Z,24.70
2023-02-06T07:44:34.841Z,21.87
2023-02-06T07:47:02.286Z,22.30
2023-02-06T07:49:36.859Z,21.40
2023-02-06T07:52:11.988Z,19.73
2023-02-06T07:54:45.966Z,18.57
2023-02-06T07:57:13.687Z,20.37
2023-02-06T07:59:49.565Z,21.30
2023-02-06T08:02:37.975Z,22.03
2023-02-06T08:05:12.936Z,23.87
2023-02-06T08:07:47.092Z,23.27
2023-02-06T08:10:22.091Z,22.07
2023-02-06T08:12:57.102Z,22.03
2023-02-06T08:15:25.597Z,21.90
2023-02-06T08:18:00.081Z,21.33
2023-02-06T08:20:28.380Z,17.27
2023-02-06T08:23:02.936Z,18.53
2023-02-06T08:25:31.121Z,20.87
2023-02-06T08:28:06.047Z,20.47
2023-02-06T08:30:41.090Z,20.97
2023-02-06T08:33:14.974Z,21.70
2023-02-06T08:35:49.098Z,21.23
2023-02-06T08:38:17.324Z,20.47
2023-02-06T08:40:52.904Z,19.50
2023-02-06T08:43:28.045Z,20.03
2023-02-06T08:46:08.354Z,20.60
2023-02-06T08:48:48.524Z,22.77
2023-02-06T08:51:23.010Z,21.27
2023-02-06T08:54:03.029Z,17.80
2023-02-06T08:56:32.520Z,18.57
2023-02-06T08:59:10.170Z,19.33
2023-02-06T09:01:40.928Z,17.80
2023-02-06T09:04:19.012Z,18.97
2023-02-06T09:07:00.038Z,19.83
2023-02-06T09:09:35.881Z,18.20
2023-02-06T09:12:04.156Z,17.27
2023-02-06T09:14:38.874Z,17.30
2023-02-06T09:17:13.982Z,16.60
2023-02-06T09:19:42.121Z,17.17
2023-02-06T09:22:10.144Z,15.63
2023-02-06T09:24:45.902Z,14.20
2023-02-06T09:27:20.130Z,15.37
2023-02-06T09:29:48.333Z,15.80
2023-02-06T09:32:23.860Z,15.60
2023-02-06T09:34:58.888Z,14.03
2023-02-06T09:37:26.556Z,17.67
2023-02-06T09:40:01.079Z,13.63
2023-02-06T09:42:38.915Z,13.03
2023-02-06T09:45:26.864Z,14.60
2023-02-06T09:47:59.270Z,15.17
2023-02-06T09:50:41.001Z,15.53
2023-02-06T09:53:21.781Z,14.87
2023-02-06T09:56:06.841Z,15.00
2023-02-06T09:58:47.136Z,13.83
2023-02-06T10:01:51.872Z,11.10
2023-02-06T10:04:46.227Z,10.70
2023-02-06T10:07:36.887Z,10.27
2023-02-06T10:10:38.068Z,12.30
2023-02-06T10:13:40.033Z,9.83
2023-02-06T10:16:25.039Z,10.10
2023-02-06T10:19:07.052Z,9.03
2023-02-06T10:21:42.823Z,8.33
2023-02-06T10:24:34.876Z,7.33
2023-02-06T10:27:15.829Z,5.77
2023-02-06T10:29:46.842Z,5.20
2023-02-06T10:32:35.921Z,5.67
2023-02-06T10:35:41.001Z,4.63
2023-02-06T10:38:38.950Z,4.40
2023-02-06T10:41:44.909Z,5.47
2023-02-06T10:44:25.340Z,5.30
2023-02-06T10:47:01.920Z,4.70
2023-02-06T10:49:43.847Z,5.47
2023-02-06T10:52:39.824Z,4.23
2023-02-06T10:55:16.095Z,3.80
2023-02-06T10:57:52.827Z,3.80
2023-02-06T11:00:36.014Z,3.93
2023-02-06T11:03:15.922Z,4.17
2023-02-06T11:05:49.807Z,4.50
2023-02-06T11:08:27.330Z,4.53
2023-02-06T11:11:02.827Z,4.10
2023-02-06T11:13:45.790Z,3.90
2023-02-06T11:16:22.871Z,4.10
2023-02-06T11:18:51.270Z,4.00
2023-02-06T11:21:47.907Z,4.33
2023-02-06T11:24:24.981Z,4.70
2023-02-06T11:27:00.888Z,4.40
2023-02-06T11:29:46.092Z,4.87
2023-02-06T11:32:36.609Z,4.90
2023-02-06T11:35:36.224Z,4.67
2023-02-06T11:38:21.342Z,5.80
2023-02-06T11:41:24.845Z,5.00
2023-02-06T11:43:56.085Z,5.57
2023-02-06T11:46:38.886Z,5.27
2023-02-06T11:49:14.884Z,5.00
2023-02-06T11:51:55.804Z,5.10
2023-02-06T11:54:38.827Z,5.03
2023-02-06T11:57:33.840Z,4.97
2023-02-06T12:00:22.741Z,5.17
2023-02-06T12:02:58.856Z,4.67
2023-02-06T12:05:44.875Z,4.57
2023-02-06T12:08:17.262Z,4.90
2023-02-06T12:11:03.916Z,4.87
2023-02-06T12:13:37.715Z,5.10
2023-02-06T12:16:13.849Z,5.57
2023-02-06T12:18:52.840Z,4.93
2023-02-06T12:21:33.908Z,5.20
2023-02-06T12:24:05.676Z,4.77
2023-02-06T12:26:44.865Z,5.40
2023-02-06T12:29:52.854Z,5.43
2023-02-06T12:32:27.441Z,5.27
2023-02-06T12:35:07.872Z,5.10
2023-02-06T12:37:56.939Z,4.57
2023-02-06T12:41:08.876Z,4.60
2023-02-06T12:43:40.094Z,4.53
2023-02-06T12:46:24.921Z,5.57
2023-02-06T12:49:15.818Z,5.97
2023-02-06T12:52:04.982Z,4.77
2023-02-06T12:54:54.842Z,5.43
2023-02-06T12:57:31.893Z,4.60
2023-02-06T13:00:20.783Z,4.50
2023-02-06T13:03:25.817Z,4.60
2023-02-06T13:06:12.311Z,5.07
2023-02-06T13:08:51.930Z,4.60
2023-02-06T13:11:28.793Z,4.93
2023-02-06T13:14:27.906Z,4.93
2023-02-06T13:17:04.458Z,4.67
2023-02-06T13:19:59.875Z,4.63
2023-02-06T13:22:47.829Z,4.57
2023-02-06T13:25:30.371Z,4.67
2023-02-06T13:28:08.854Z,4.40
2023-02-06T13:30:45.955Z,5.00
2023-02-06T13:33:22.268Z,4.47
2023-02-06T13:36:06.044Z,5.20
2023-02-06T13:38:37.150Z,4.73
2023-02-06T13:41:23.169Z,4.77
2023-02-06T13:44:17.912Z,4.93
2023-02-06T13:47:14.878Z,4.83
2023-02-06T13:49:57.384Z,4.53
2023-02-06T13:52:55.875Z,4.67
2023-02-06T13:56:10.858Z,4.60
2023-02-06T13:58:50.945Z,5.40
2023-02-06T14:01:34.853Z,4.97
2023-02-06T14:04:12.927Z,5.57
2023-02-06T14:07:08.882Z,4.77
2023-02-06T14:10:00.441Z,4.20
2023-02-06T14:13:06.889Z,5.20
2023-02-06T14:15:49.871Z,4.90
2023-02-06T14:18:17.490Z,4.93
2023-02-06T14:21:02.894Z,4.20
2023-02-06T14:24:07.384Z,4.30
2023-02-06T14:26:50.859Z,4.67
2023-02-06T14:29:48.566Z,4.50
2023-02-06T14:32:45.014Z,4.17
2023-02-06T14:35:26.810Z,4.20
2023-02-06T14:38:43.873Z,4.13
2023-02-06T14:41:12.559Z,4.20
2023-02-06T14:43:49.848Z,3.97
2023-02-06T14:46:19.926Z,4.13
2023-02-06T14:48:58.376Z,4.30
2023-02-06T14:51:40.837Z,3.13
2023-02-06T14:54:35.228Z,3.97
2023-02-06T14:57:12.886Z,4.17
2023-02-06T14:59:52.156Z,4.07
2023-02-06T15:02:35.139Z,4.23
2023-02-06T15:05:17.858Z,4.20
2023-02-06T15:08:03.863Z,4.13
2023-02-06T15:10:35.289Z,4.17
2023-02-06T15:13:10.883Z,3.73
2023-02-06T15:15:57.899Z,4.20
2023-02-06T15:18:27.518Z,4.50
2023-02-06T15:21:08.899Z,3.63
2023-02-06T15:23:55.528Z,3.40
2023-02-06T15:26:36.032Z,3.73
2023-02-06T15:29:11.885Z,3.80
2023-02-06T15:31:39.498Z,3.60
2023-02-06T15:34:13.904Z,4.00
2023-02-06T15:36:48.118Z,3.73
2023-02-06T15:39:23.904Z,3.97
2023-02-06T15:41:55.040Z,3.23
2023-02-06T15:44:41.967Z,3.50
2023-02-06T15:47:14.778Z,3.80
2023-02-06T15:49:51.869Z,4.13
2023-02-06T15:52:42.907Z,5.13
2023-02-06T15:55:42.842Z,4.23
2023-02-06T15:58:16.580Z,3.83
2023-02-06T16:00:55.975Z,3.57
2023-02-06T16:03:36.895Z,3.27
2023-02-06T16:06:18.731Z,3.73
2023-02-06T16:09:02.924Z,6.90
2023-02-06T16:11:48.293Z,33.77
2023-02-06T16:14:40.870Z,18.33
2023-02-06T16:17:13.990Z,18.90
2023-02-06T16:19:55.883Z,34.93
2023-02-06T16:22:38.919Z,27.53
2023-02-06T16:25:25.777Z,14.47
2023-02-06T16:27:59.985Z,6.57
2023-02-06T16:30:30.665Z,6.50
2023-02-06T16:33:09.484Z,6.73
2023-02-06T16:35:45.204Z,5.03
2023-02-06T16:38:12.804Z,6.63
2023-02-06T16:40:47.050Z,5.93
2023-02-06T16:43:21.293Z,4.17
2023-02-06T16:45:49.975Z,5.27
2023-02-06T16:48:24.902Z,5.97
2023-02-06T16:50:58.937Z,5.63
2023-02-06T16:53:33.977Z,7.13
2023-02-06T16:56:02.328Z,8.00
2023-02-06T16:58:38.969Z,8.17
2023-02-06T17:01:11.930Z,9.60
2023-02-06T17:03:53.047Z,8.20
2023-02-06T17:06:29.898Z,6.73
2023-02-06T17:09:10.392Z,5.93
2023-02-06T17:11:44.876Z,5.27
2023-02-06T17:14:12.653Z,4.97
2023-02-06T17:16:48.916Z,4.67
2023-02-06T17:19:16.243Z,4.40
2023-02-06T17:21:49.902Z,5.23
2023-02-06T17:24:23.923Z,5.60
2023-02-06T17:26:58.139Z,5.70
2023-02-06T17:29:28.209Z,6.97
2023-02-06T17:32:04.567Z,6.53
2023-02-06T17:34:40.039Z,6.07
2023-02-06T17:37:18.898Z,6.60
2023-02-06T17:39:56.905Z,6.47
2023-02-06T17:42:31.921Z,5.47
2023-02-06T17:45:00.391Z,5.03
2023-02-06T17:47:34.883Z,5.67
2023-02-06T17:50:08.987Z,5.57
2023-02-06T17:52:42.870Z,5.40
2023-02-06T17:55:10.829Z,5.87
2023-02-06T17:57:46.940Z,5.57
2023-02-06T18:00:17.183Z,6.43
2023-02-06T18:02:50.969Z,6.97
2023-02-06T18:05:33.934Z,6.20
2023-02-06T18:08:23.917Z,6.30
2023-02-06T18:10:52.233Z,6.33
2023-02-06T18:13:41.905Z,5.70
2023-02-06T18:16:15.509Z,5.77
2023-02-06T18:18:49.936Z,6.20
2023-02-06T18:21:25.998Z,5.63
2023-02-06T18:23:54.423Z,5.93
2023-02-06T18:26:28.128Z,6.40
2023-02-06T18:28:55.609Z,6.50
2023-02-06T18:31:35.976Z,6.33
2023-02-06T18:34:13.950Z,8.87
2023-02-06T18:36:48.958Z,7.73
2023-02-06T18:39:17.097Z,6.20
2023-02-06T18:42:09.946Z,6.77
2023-02-06T18:44:48.961Z,6.13
2023-02-06T18:47:18.971Z,8.87
2023-02-06T18:49:52.913Z,7.13
2023-02-06T18:52:26.898Z,5.90
2023-02-06T18:54:53.867Z,6.10
2023-02-06T18:57:26.952Z,6.10
2023-02-06T18:59:54.091Z,6.43
2023-02-06T19:02:27.957Z,6.37
2023-02-06T19:05:02.486Z,6.20
2023-02-06T19:07:35.987Z,6.07
2023-02-06T19:10:10.279Z,6.00
2023-02-06T19:12:44.891Z,5.90
2023-02-06T19:15:13.250Z,7.00
2023-02-06T19:17:46.924Z,6.77
2023-02-06T19:20:21.003Z,7.27
2023-02-06T19:22:48.022Z,6.90
2023-02-06T19:25:21.948Z,7.70
2023-02-06T19:27:51.995Z,7.27
2023-02-06T19:30:25.979Z,7.27
2023-02-06T19:33:00.935Z,6.93
2023-02-06T19:35:34.947Z,6.97
2023-02-06T19:38:03.540Z,6.93
2023-02-06T19:40:37.286Z,7.77
2023-02-06T19:43:11.966Z,7.27
2023-02-06T19:45:38.922Z,8.23
2023-02-06T19:48:18.911Z,8.13
2023-02-06T19:50:52.882Z,6.80
2023-02-06T19:53:19.880Z,7.47
2023-02-06T19:55:56.909Z,7.13
2023-02-06T19:58:31.937Z,7.87
2023-02-06T20:01:15.388Z,7.00
2023-02-06T20:03:50.951Z,6.93
2023-02-06T20:06:25.989Z,7.10
2023-02-06T20:09:00.025Z,7.50
2023-02-06T20:11:33.904Z,7.77
2023-02-06T20:14:08.004Z,7.53
2023-02-06T20:16:47.965Z,9.47
2023-02-06T20:19:27.131Z,10.23
2023-02-06T20:21:59.965Z,9.73
2023-02-06T20:24:36.948Z,10.00
2023-02-06T20:27:07.939Z,9.33
2023-02-06T20:29:49.961Z,8.83
2023-02-06T20:32:25.981Z,9.60
2023-02-06T20:34:52.989Z,8.10
2023-02-06T20:37:27.994Z,8.53
2023-02-06T20:40:02.008Z,10.90
2023-02-06T20:42:37.893Z,11.73
2023-02-06T20:45:05.334Z,10.40
2023-02-06T20:47:34.010Z,11.10
2023-02-06T20:50:07.935Z,11.07
2023-02-06T20:52:42.976Z,9.87
2023-02-06T20:55:16.985Z,12.40
2023-02-06T20:57:44.258Z,11.00
2023-02-06T21:00:20.065Z,10.53
2023-02-06T21:02:47.051Z,11.67
2023-02-06T21:05:24.966Z,10.50
2023-02-06T21:08:08.933Z,10.57
2023-02-06T21:10:42.925Z,10.37
2023-02-06T21:13:09.988Z,11.60
2023-02-06T21:15:45.142Z,10.07
2023-02-06T21:18:13.909Z,10.53
2023-02-06T21:20:41.016Z,9.53
2023-02-06T21:23:16.168Z,10.87
2023-02-06T21:25:54.687Z,10.63
2023-02-06T21:28:32.128Z,10.80
2023-02-06T21:31:21.340Z,10.47
2023-02-06T21:33:51.366Z,10.90
2023-02-06T21:36:27.916Z,10.53
2023-02-06T21:38:55.501Z,11.87
2023-02-06T21:41:33.954Z,11.03
2023-02-06T21:44:10.052Z,10.27
2023-02-06T21:46:38.145Z,11.17
2023-02-06T21:49:12.905Z,10.87
2023-02-06T21:51:41.591Z,10.67
2023-02-06T21:54:15.895Z,11.33
2023-02-06T21:56:43.519Z,10.67
2023-02-06T21:59:24.439Z,11.03
2023-02-06T22:01:52.429Z,10.83
2023-02-06T22:04:25.920Z,10.33
2023-02-06T22:07:07.982Z,10.93
2023-02-06T22:09:35.272Z,10.30
2023-02-06T22:12:08.982Z,10.73
2023-02-06T22:14:43.230Z,10.83
2023-02-06T22:17:10.180Z,10.63
2023-02-06T22:19:45.941Z,10.33
2023-02-06T22:22:21.043Z,11.07
2023-02-06T22:25:03.493Z,11.27
2023-02-06T22:27:33.810Z,11.70
2023-02-06T22:30:07.952Z,11.23
2023-02-06T22:32:45.962Z,10.80
2023-02-06T22:35:13.108Z,11.57
2023-02-06T22:37:46.971Z,11.57
2023-02-06T22:40:13.965Z,12.00
2023-02-06T22:42:46.963Z,12.60
2023-02-06T22:45:14.160Z,12.20
2023-02-06T22:47:47.957Z,10.67
2023-02-06T22:50:14.969Z,11.80
2023-02-06T22:53:09.504Z,11.20
2023-02-06T22:55:59.806Z,11.53
2023-02-06T22:58:32.933Z,11.30
2023-02-06T23:01:09.965Z,11.83
2023-02-06T23:03:38.862Z,10.83
2023-02-06T23:06:21.997Z,11.27
2023-02-06T23:08:49.105Z,10.27
2023-02-06T23:11:16.752Z,11.63
2023-02-06T23:13:49.977Z,11.40
2023-02-06T23:16:19.966Z,12.47
2023-02-06T23:18:54.934Z,12.17
2023-02-06T23:21:30.989Z,13.20
2023-02-06T23:23:59.787Z,12.53
2023-02-06T23:26:34.966Z,11.67
2023-02-06T23:29:06.255Z,11.37
2023-02-06T23:31:40.992Z,11.30
2023-02-06T23:34:08.130Z,12.40
2023-02-06T23:36:42.968Z,11.20
2023-02-06T23:39:17.919Z,12.43
2023-02-06T23:41:50.985Z,11.87
2023-02-06T23:44:24.900Z,12.00
2023-02-06T23:46:52.132Z,12.47
2023-02-06T23:49:25.937Z,12.90
2023-02-06T23:51:52.837Z,13.23
2023-02-06T23:54:25.969Z,13.23
2023-02-06T23:56:54.202Z,12.83
2023-02-06T23:59:27.988Z,12.60
